Time;durP1;ratioP1;P1;durP2;ratioP2;P2;SDS_P1;SDS_P2;PMS_P1;PMS_P2;Temp;Humidity;BMP_temperature;BMP_pressure;BME280_temperature;BME280_humidity;BME280_pressure;Samples;Min_cycle;Max_cycle;Signal;HPM_P1;HPM_P2
2023/08/18 00:03:37;;;;;;;9.70;4.80;;;;;;;20.62;100.00;100835.14;216888;1291;142107;-82
2023/08/18 00:08:38;;;;;;;10.40;5.20;;;;;;;20.60;100.00;100828.88;212292;1291;138893;-82
2023/08/18 00:13:39;;;;;;;13.10;5.10;;;;;;;20.56;100.00;100831.27;211552;1293;140605;-82
2023/08/18 00:18:39;;;;;;;8.20;4.70;;;;;;;20.52;100.00;100836.33;211973;1291;139533;-82
2023/08/18 00:23:40;;;;;;;11.10;4.60;;;;;;;20.42;100.00;100837.75;211623;1294;141513;-82
2023/08/18 00:28:40;;;;;;;9.70;5.20;;;;;;;20.32;100.00;100838.77;211888;1291;139047;-82
2023/08/18 00:33:40;;;;;;;9.50;4.70;;;;;;;20.20;100.00;100828.96;211463;1291;140993;-82
2023/08/18 00:38:41;;;;;;;8.00;4.30;;;;;;;20.15;100.00;100827.10;212529;1294;139507;-82
2023/08/18 00:43:41;;;;;;;8.50;4.00;;;;;;;20.09;100.00;100830.02;212928;1293;142015;-82
2023/08/18 00:48:42;;;;;;;10.90;6.00;;;;;;;20.03;100.00;100831.80;213401;1295;138973;-82
2023/08/18 00:53:44;;;;;;;6.90;3.80;;;;;;;19.94;100.00;100832.44;213154;1290;140632;-82
2023/08/18 00:58:44;;;;;;;8.70;4.00;;;;;;;19.89;100.00;100830.41;213386;1291;141507;-82
2023/08/18 01:03:46;;;;;;;11.30;4.70;;;;;;;19.83;100.00;100826.38;212931;1291;142192;-82
2023/08/18 01:08:46;;;;;;;7.80;4.40;;;;;;;19.78;100.00;100826.01;213442;1291;139243;-82
2023/08/18 01:13:54;;;;;;;8.70;4.60;;;;;;;19.72;100.00;100823.65;213138;1290;141537;-82
2023/08/18 01:18:55;;;;;;;9.80;4.50;;;;;;;19.63;100.00;100824.95;214718;1291;139527;-82
2023/08/18 01:24:01;;;;;;;8.60;4.70;;;;;;;19.57;100.00;100822.60;214210;1291;142924;-82
2023/08/18 01:29:01;;;;;;;10.30;4.50;;;;;;;19.52;100.00;100824.76;214018;1292;141533;-81
2023/08/18 01:34:08;;;;;;;8.30;4.30;;;;;;;19.48;100.00;100820.86;214538;1291;139408;-82
2023/08/18 01:39:09;;;;;;;7.20;4.20;;;;;;;19.41;100.00;100818.50;214266;1293;141217;-82
2023/08/18 01:44:14;;;;;;;9.10;4.90;;;;;;;19.34;100.00;100812.50;216615;1291;139549;-82
2023/08/18 01:49:15;;;;;;;8.70;4.80;;;;;;;19.29;100.00;100828.38;217108;1291;142478;-82
2023/08/18 01:54:15;;;;;;;9.10;4.80;;;;;;;19.27;100.00;100837.27;216132;1290;139421;-82
2023/08/18 01:59:16;;;;;;;9.20;5.10;;;;;;;19.24;100.00;100863.23;213293;1291;140753;-82
2023/08/18 02:04:16;;;;;;;10.40;5.60;;;;;;;19.24;100.00;100919.54;213666;1291;139280;-82
2023/08/18 02:09:16;;;;;;;10.90;5.30;;;;;;;19.23;100.00;100892.52;213026;1291;142047;-82
2023/08/18 02:14:17;;;;;;;15.00;5.90;;;;;;;19.25;100.00;100907.16;213605;1291;139880;-82
2023/08/18 02:19:17;;;;;;;14.10;5.70;;;;;;;19.28;100.00;100904.88;213078;1291;142103;-82
2023/08/18 02:24:18;;;;;;;12.20;5.90;;;;;;;19.32;100.00;100912.55;213664;1290;139676;-82
2023/08/18 02:29:18;;;;;;;11.40;5.70;;;;;;;19.38;100.00;100900.16;213178;1290;142851;-81
2023/08/18 02:34:19;;;;;;;18.70;7.60;;;;;;;19.45;100.00;100890.78;213421;1293;138841;-83
2023/08/18 02:39:20;;;;;;;14.70;8.40;;;;;;;19.54;100.00;100881.27;213037;1291;142290;-83
2023/08/18 02:44:25;;;;;;;11.80;7.60;;;;;;;19.66;100.00;100859.83;213641;1293;139425;-84
2023/08/18 02:49:26;;;;;;;12.60;7.90;;;;;;;19.79;100.00;100838.35;213498;1294;142623;-83
2023/08/18 02:54:26;;;;;;;11.50;7.70;;;;;;;19.91;100.00;100825.10;214436;1291;139611;-83
2023/08/18 02:59:27;;;;;;;13.70;7.50;;;;;;;19.98;100.00;100818.80;214085;1291;140807;-84
2023/08/18 03:04:28;;;;;;;10.00;6.90;;;;;;;20.03;100.00;100801.67;214697;1291;139582;-83
2023/08/18 03:09:28;;;;;;;10.50;6.40;;;;;;;20.07;100.00;100804.27;214256;1290;141091;-83
2023/08/18 03:14:28;;;;;;;10.70;6.70;;;;;;;20.10;100.00;100796.94;214983;1290;139348;-83
2023/08/18 03:19:29;;;;;;;11.10;6.00;;;;;;;20.13;100.00;100791.29;214426;1291;141661;-83
2023/08/18 03:24:30;;;;;;;9.40;5.80;;;;;;;20.15;100.00;100786.45;214706;1290;139103;-82
2023/08/18 03:29:30;;;;;;;10.00;5.50;;;;;;;20.14;100.00;100785.66;214545;1291;142016;-82
2023/08/18 03:34:31;;;;;;;11.20;5.10;;;;;;;20.11;100.00;100790.92;217500;1291;138890;-82
2023/08/18 03:39:32;;;;;;;8.10;4.80;;;;;;;20.08;100.00;100798.35;216990;1291;141769;-82
2023/08/18 03:44:32;;;;;;;8.80;5.20;;;;;;;20.09;100.00;100793.45;214234;1291;138886;-82
2023/08/18 03:49:32;;;;;;;8.80;5.00;;;;;;;20.08;100.00;100790.36;213013;1291;140419;-81
2023/08/18 03:54:33;;;;;;;7.90;5.20;;;;;;;20.08;100.00;100790.92;213555;1290;139244;-82
2023/08/18 03:59:34;;;;;;;12.70;6.30;;;;;;;20.09;100.00;100785.55;212943;1291;141083;-81
2023/08/18 04:04:34;;;;;;;9.20;5.90;;;;;;;20.12;100.00;100778.93;213459;1291;138811;-82
2023/08/18 04:09:34;;;;;;;11.90;6.40;;;;;;;20.17;100.00;100773.40;212890;1291;141058;-81
2023/08/18 04:14:35;;;;;;;11.00;6.10;;;;;;;20.23;100.00;100777.72;213532;1291;139205;-82
2023/08/18 04:19:35;;;;;;;11.20;6.10;;;;;;;20.29;100.00;100782.69;212842;1293;141521;-82
2023/08/18 04:24:36;;;;;;;13.50;6.70;;;;;;;20.35;100.00;100781.13;213528;1291;139064;-81
2023/08/18 04:29:36;;;;;;;12.90;6.70;;;;;;;20.43;100.00;100785.48;213148;1291;142067;-82
2023/08/18 04:34:36;;;;;;;9.50;6.30;;;;;;;20.47;100.00;100779.14;213720;1293;140078;-82
2023/08/18 04:39:37;;;;;;;9.60;5.70;;;;;;;20.53;100.00;100776.77;213639;1291;141180;-82
2023/08/18 04:44:37;;;;;;;11.20;6.10;;;;;;;20.57;100.00;100772.84;214584;1291;139014;-82
2023/08/18 04:49:38;;;;;;;10.20;5.70;;;;;;;20.61;100.00;100769.23;214043;1291;142119;-82
2023/08/18 04:54:38;;;;;;;8.90;5.70;;;;;;;20.62;100.00;100763.30;214711;1290;139669;-82
2023/08/18 04:59:39;;;;;;;12.90;6.40;;;;;;;20.65;100.00;100762.89;214343;1291;141349;-82
2023/08/18 05:04:39;;;;;;;11.60;5.30;;;;;;;20.70;100.00;100763.58;214961;1290;139283;-82
2023/08/18 05:09:39;;;;;;;11.60;7.00;;;;;;;20.73;100.00;100760.30;214096;1291;141384;-82
2023/08/18 05:14:40;;;;;;;11.60;6.70;;;;;;;20.75;100.00;100756.88;214645;1291;139499;-82
2023/08/18 05:19:40;;;;;;;11.10;5.90;;;;;;;20.77;100.00;100747.17;215439;1290;141347;-81
2023/08/18 05:24:41;;;;;;;9.30;5.90;;;;;;;20.77;100.00;100744.59;217650;1290;139650;-81
2023/08/18 05:29:41;;;;;;;10.60;6.40;;;;;;;20.83;100.00;100751.73;216152;1293;141872;-82
2023/08/18 05:34:41;;;;;;;13.00;5.30;;;;;;;20.86;100.00;100757.88;213658;1290;139200;-81
2023/08/18 05:39:43;;;;;;;11.30;5.40;;;;;;;20.89;100.00;100767.43;212794;1290;141071;-82
2023/08/18 05:44:43;;;;;;;10.50;5.60;;;;;;;20.95;100.00;100768.96;213241;1293;139619;-82
2023/08/18 05:49:44;;;;;;;12.40;5.90;;;;;;;21.06;100.00;100767.85;212843;1291;141215;-82
2023/08/18 05:54:44;;;;;;;9.60;5.70;;;;;;;21.22;100.00;100773.36;213469;1290;139242;-81
2023/08/18 05:59:44;;;;;;;10.00;5.40;;;;;;;21.40;100.00;100772.14;212982;1291;142651;-82
2023/08/18 06:04:45;;;;;;;9.50;5.20;;;;;;;21.61;100.00;100779.31;213513;1295;139650;-83
2023/08/18 06:09:45;;;;;;;10.30;5.80;;;;;;;21.75;100.00;100805.13;212875;1291;139573;-82
2023/08/18 06:14:45;;;;;;;10.20;5.90;;;;;;;21.81;100.00;100807.26;213415;1291;139507;-82
2023/08/18 06:19:46;;;;;;;10.50;5.80;;;;;;;21.85;100.00;100808.83;212952;1293;140999;-82
2023/08/18 06:24:46;;;;;;;11.70;5.60;;;;;;;21.95;100.00;100819.91;213977;1290;140431;-82
2023/08/18 06:29:47;;;;;;;11.10;5.40;;;;;;;22.10;100.00;100820.09;214148;1291;140425;-81
2023/08/18 06:34:47;;;;;;;9.00;5.40;;;;;;;22.22;100.00;100833.33;215120;1290;139392;-82
2023/08/18 06:39:47;;;;;;;11.20;6.50;;;;;;;22.34;100.00;100819.23;214622;1290;141831;-82
2023/08/18 06:44:48;;;;;;;10.90;6.10;;;;;;;22.50;100.00;100813.29;214950;1291;139884;-82
2023/08/18 06:49:48;;;;;;;10.00;6.40;;;;;;;22.64;100.00;100826.21;214667;1291;140625;-82
2023/08/18 06:54:49;;;;;;;9.40;5.80;;;;;;;22.73;100.00;100820.78;215116;1291;139636;-83
2023/08/18 06:59:49;;;;;;;12.10;7.00;;;;;;;22.83;100.00;100820.21;214408;1291;141142;-82
2023/08/18 07:04:49;;;;;;;12.30;6.80;;;;;;;22.91;100.00;100818.42;215367;1293;139467;-82
2023/08/18 07:09:50;;;;;;;12.70;6.70;;;;;;;23.07;100.00;100828.48;216616;1291;140725;-82
2023/08/18 07:14:51;;;;;;;13.70;7.00;;;;;;;23.23;100.00;100818.41;217485;1291;139438;-83
2023/08/18 07:19:51;;;;;;;14.30;7.30;;;;;;;23.36;100.00;100810.82;215007;1293;140511;-84
2023/08/18 07:24:52;;;;;;;12.60;7.10;;;;;;;23.51;100.00;100810.83;214818;1293;139034;-84
2023/08/18 07:29:52;;;;;;;13.40;7.50;;;;;;;23.61;100.00;100815.84;214238;1290;141067;-83
2023/08/18 07:34:53;;;;;;;11.20;7.00;;;;;;;23.76;100.00;100810.38;215324;1293;140474;-83
2023/08/18 07:39:53;;;;;;;12.70;6.70;;;;;;;23.91;100.00;100815.41;214092;1293;141796;-83
2023/08/18 07:44:54;;;;;;;10.00;7.20;;;;;;;24.02;100.00;100823.48;213980;1290;139624;-83
2023/08/18 07:49:54;;;;;;;11.80;8.00;;;;;;;24.19;100.00;100821.41;213586;1291;140494;-83
2023/08/18 07:54:54;;;;;;;12.90;8.70;;;;;;;24.33;100.00;100818.35;213985;1291;139006;-84
2023/08/18 07:59:55;;;;;;;11.80;8.10;;;;;;;24.50;99.37;100823.16;213531;1292;141466;-84
2023/08/18 08:04:56;;;;;;;12.60;7.90;;;;;;;24.67;99.36;100828.83;213885;1292;138773;-83
2023/08/18 08:09:57;;;;;;;15.10;9.80;;;;;;;24.88;99.14;100835.30;213661;1291;142239;-83
2023/08/18 08:14:58;;;;;;;12.50;10.50;;;;;;;25.07;97.44;100837.63;214548;1291;139433;-83
2023/08/18 08:20:00;;;;;;;15.00;10.20;;;;;;;25.33;97.17;100837.20;214573;1291;141060;-83
2023/08/18 08:25:00;;;;;;;18.50;10.20;;;;;;;25.67;97.44;100836.09;215325;1290;139167;-82
2023/08/18 08:30:01;;;;;;;15.20;11.50;;;;;;;26.16;97.18;100832.10;214829;1291;142355;-83
2023/08/18 08:35:02;;;;;;;21.00;11.80;;;;;;;26.76;95.31;100835.17;214973;1295;138874;-82
2023/08/18 08:40:03;;;;;;;17.50;12.00;;;;;;;27.38;90.73;100834.20;214622;1291;140674;-83
2023/08/18 08:45:05;;;;;;;16.20;11.40;;;;;;;27.97;90.73;100832.45;216460;1284;141203;-83
2023/08/18 08:50:06;;;;;;;16.50;11.50;;;;;;;28.66;87.68;100841.32;214699;1289;141920;-83
2023/08/18 08:55:07;;;;;;;19.80;12.70;;;;;;;29.36;86.01;100847.89;215759;1290;139425;-84
2023/08/18 09:00:10;;;;;;;15.90;12.50;;;;;;;29.93;82.22;100840.56;217244;1289;142661;-84
2023/08/18 09:05:10;;;;;;;18.00;12.40;;;;;;;30.49;78.38;100840.30;217014;1290;97968;-82
2023/08/18 09:10:11;;;;;;;17.50;13.00;;;;;;;31.09;77.26;100845.82;213487;1291;142558;-82
2023/08/18 09:15:12;;;;;;;16.30;13.40;;;;;;;31.75;75.61;100844.08;213837;1293;139726;-82
2023/08/18 09:20:14;;;;;;;19.60;14.60;;;;;;;32.18;71.79;100840.33;213165;1294;141792;-81
2023/08/18 09:25:15;;;;;;;19.60;14.90;;;;;;;32.36;68.64;100832.34;213817;1294;138858;-82
2023/08/18 09:30:15;;;;;;;22.60;13.20;;;;;;;32.67;68.86;100831.20;213289;1289;141543;-81
2023/08/18 09:35:19;;;;;;;21.30;15.80;;;;;;;33.22;67.49;100829.50;214157;1291;98905;-81
2023/08/18 09:40:20;;;;;;;19.30;14.40;;;;;;;33.75;66.05;100818.30;213478;1291;141208;-82
2023/08/18 09:45:22;;;;;;;21.80;16.50;;;;;;;34.28;64.68;100815.11;213885;1290;138549;-82
2023/08/18 09:50:27;;;;;;;19.80;13.90;;;;;;;34.72;62.74;100814.33;213484;1290;140853;-81
2023/08/18 09:55:36;;;;;;;22.80;15.60;;;;;;;35.09;61.59;100809.59;213852;1291;277059;-81
2023/08/18 10:00:43;;;;;;;24.10;15.10;;;;;;;35.45;59.91;100805.27;213730;1291;141733;-81
2023/08/18 10:05:46;;;;;;;18.00;13.80;;;;;;;35.93;60.43;100798.93;215249;1289;103323;-81
2023/08/18 10:10:47;;;;;;;15.50;13.70;;;;;;;36.40;59.01;100797.16;214676;1290;140498;-83
2023/08/18 10:15:48;;;;;;;15.80;12.80;;;;;;;36.55;56.98;100802.21;215322;1290;139322;-83
2023/08/18 10:20:50;;;;;;;18.50;13.10;;;;;;;36.62;55.12;100802.37;215060;1290;140814;-83
2023/08/18 10:25:52;;;;;;;18.30;14.00;;;;;;;36.84;53.63;100794.61;215409;1289;138972;-82
2023/08/18 10:30:58;;;;;;;19.60;14.70;;;;;;;36.63;53.29;100793.41;214811;1294;141413;-82
2023/08/18 10:36:01;;;;;;;16.10;11.70;;;;;;;36.49;54.35;100793.09;215974;1293;97960;-83
2023/08/18 10:41:02;;;;;;;17.60;13.50;;;;;;;36.63;53.22;100789.52;215149;1290;140033;-82
2023/08/18 10:46:03;;;;;;;16.20;12.00;;;;;;;36.39;52.52;100786.80;217367;1290;138236;-82
2023/08/18 10:51:03;;;;;;;15.60;13.20;;;;;;;36.41;53.91;100788.33;217161;1289;140509;-83
2023/08/18 10:56:04;;;;;;;15.50;12.00;;;;;;;36.51;53.08;100791.47;215127;1290;138393;-83
2023/08/18 11:01:08;;;;;;;16.40;12.50;;;;;;;36.44;52.66;100790.73;213526;1289;143958;-83
2023/08/18 11:06:08;;;;;;;17.00;12.90;;;;;;;36.04;51.80;100786.98;214152;1292;98063;-83
2023/08/18 11:11:09;;;;;;;16.60;11.60;;;;;;;35.26;51.99;100787.07;213370;1289;141245;-83
2023/08/18 11:16:10;;;;;;;14.80;12.60;;;;;;;35.16;51.90;100782.54;213867;1289;138948;-83
2023/08/18 11:21:11;;;;;;;14.30;11.20;;;;;;;35.05;53.74;100774.66;213544;1290;140674;-83
2023/08/18 11:26:12;;;;;;;19.80;13.60;;;;;;;35.33;53.08;100772.73;214137;1291;138459;-82
2023/08/18 11:31:13;;;;;;;16.40;12.00;;;;;;;35.50;52.66;100773.80;213594;1290;142677;-83
2023/08/18 11:36:14;;;;;;;16.20;12.90;;;;;;;35.88;52.64;100775.41;214144;1291;139147;-83
2023/08/18 11:41:15;;;;;;;18.00;13.10;;;;;;;36.15;52.07;100774.38;213368;1291;140435;-82
2023/08/18 11:46:15;;;;;;;16.00;13.40;;;;;;;36.12;51.47;100778.27;213891;1290;138332;-82
2023/08/18 11:51:17;;;;;;;19.40;13.20;;;;;;;35.52;51.80;100782.27;213567;1291;140820;-83
2023/08/18 11:56:19;;;;;;;16.20;12.80;;;;;;;35.41;51.53;100783.00;214832;1293;138491;-83
2023/08/18 12:01:21;;;;;;;15.40;12.00;;;;;;;35.04;52.24;100782.84;214455;1291;142683;-82
2023/08/18 12:06:24;;;;;;;18.70;13.40;;;;;;;34.89;52.44;100783.48;215153;1291;139503;-82
2023/08/18 12:11:24;;;;;;;17.50;11.80;;;;;;;34.77;52.37;100783.55;214520;1293;141933;-83
2023/08/18 12:16:24;;;;;;;13.70;10.80;;;;;;;34.73;52.13;100780.89;214999;1290;139479;-83
2023/08/18 12:21:25;;;;;;;17.50;10.70;;;;;;;34.88;52.72;100779.04;215040;1290;140161;-83
2023/08/18 12:26:26;;;;;;;14.60;11.90;;;;;;;34.76;50.22;100773.00;215256;1291;138768;-83
2023/08/18 12:31:27;;;;;;;13.80;10.70;;;;;;;34.26;51.79;100769.14;215363;1289;141336;-82
2023/08/18 12:36:27;;;;;;;12.90;10.40;;;;;;;34.46;51.88;100767.88;216395;1289;138496;-83
2023/08/18 12:41:28;;;;;;;12.70;10.00;;;;;;;34.35;51.24;100766.58;216150;1291;139334;-82
2023/08/18 12:46:29;;;;;;;13.20;9.00;;;;;;;33.92;50.74;100764.81;217230;1289;138533;-82
2023/08/18 12:51:29;;;;;;;10.50;8.10;;;;;;;33.63;51.32;100764.89;215850;1290;141077;-82
2023/08/18 12:56:30;;;;;;;12.90;8.40;;;;;;;33.55;51.42;100762.76;216439;1290;138288;-81
2023/08/18 13:01:31;;;;;;;10.60;8.40;;;;;;;33.60;52.13;100753.48;216084;1290;141049;-81
2023/08/18 13:06:31;;;;;;;14.80;8.10;;;;;;;33.41;50.88;100748.64;216818;1290;139122;-81
2023/08/18 13:11:35;;;;;;;10.70;7.90;;;;;;;33.12;51.67;100748.67;216294;1290;140421;-81
2023/08/18 13:16:36;;;;;;;11.60;8.80;;;;;;;33.22;51.44;100744.22;216629;1289;139445;-82
2023/08/18 13:21:36;;;;;;;11.20;8.60;;;;;;;33.37;51.24;100743.74;215926;1290;141444;-83
2023/08/18 13:26:39;;;;;;;10.70;8.30;;;;;;;33.51;51.55;100732.52;216353;1290;138753;-82
2023/08/18 13:31:39;;;;;;;12.20;8.60;;;;;;;33.41;51.32;100731.55;215765;1289;139927;-82
2023/08/18 13:36:40;;;;;;;10.40;8.10;;;;;;;33.26;51.84;100726.66;216193;1290;138271;-80
2023/08/18 13:41:41;;;;;;;11.10;8.60;;;;;;;33.25;52.29;100722.48;215865;1290;139153;-82
2023/08/18 13:46:43;;;;;;;10.10;8.70;;;;;;;33.20;51.78;100715.64;216230;1291;138820;-81
2023/08/18 13:51:44;;;;;;;11.50;8.30;;;;;;;33.11;51.25;100708.11;215698;1290;142015;-80
2023/08/18 13:56:44;;;;;;;12.30;9.10;;;;;;;33.11;51.85;100710.45;216220;1290;139850;-81
2023/08/18 14:01:45;;;;;;;11.20;7.90;;;;;;;32.99;51.06;100711.75;215932;1289;140572;-81
2023/08/18 14:06:46;;;;;;;11.90;8.40;;;;;;;32.91;51.01;100709.96;216408;1289;138217;-81
2023/08/18 14:11:47;;;;;;;12.00;8.70;;;;;;;32.91;50.79;100708.31;216045;1289;142507;-81
2023/08/18 14:16:47;;;;;;;10.60;7.50;;;;;;;32.71;49.85;100696.84;216135;1289;138285;-82
2023/08/18 14:21:48;;;;;;;12.20;7.80;;;;;;;32.43;49.63;100692.04;215759;1290;140124;-81
2023/08/18 14:26:49;;;;;;;13.60;7.60;;;;;;;32.30;50.71;100692.69;216271;1290;138700;-82
2023/08/18 14:31:50;;;;;;;11.30;7.50;;;;;;;32.30;50.97;100685.80;216136;1290;140496;-82
2023/08/18 14:36:50;;;;;;;10.00;8.50;;;;;;;32.09;50.71;100687.34;216943;1290;138895;-81
2023/08/18 14:41:51;;;;;;;9.40;8.00;;;;;;;31.91;51.58;100690.25;215886;1290;140451;-81
2023/08/18 14:46:52;;;;;;;10.50;8.00;;;;;;;31.91;52.77;100705.00;216456;1289;138628;-82
2023/08/18 14:51:52;;;;;;;13.30;8.90;;;;;;;32.07;53.03;100715.97;215258;1289;141797;-81
2023/08/18 14:56:53;;;;;;;12.10;9.50;;;;;;;32.05;53.00;100714.64;213949;1290;138888;-81
2023/08/18 15:01:54;;;;;;;11.10;8.50;;;;;;;31.99;52.43;100723.34;213640;1290;140793;-82
2023/08/18 15:06:54;;;;;;;11.00;8.50;;;;;;;31.91;53.62;100718.71;214169;1293;139107;-82
2023/08/18 15:11:55;;;;;;;10.60;8.00;;;;;;;31.86;52.59;100720.01;213740;1293;140152;-81
2023/08/18 15:16:55;;;;;;;10.90;7.80;;;;;;;31.54;52.62;100718.18;214892;1290;138437;-81
2023/08/18 15:21:55;;;;;;;11.30;7.60;;;;;;;31.34;51.82;100727.08;214336;1293;140123;-82
2023/08/18 15:26:56;;;;;;;11.30;7.70;;;;;;;31.18;51.76;100733.48;214544;1290;138387;-81
2023/08/18 15:31:57;;;;;;;13.10;8.40;;;;;;;31.01;52.20;100733.85;213942;1293;140597;-81
2023/08/18 15:36:59;;;;;;;18.80;8.90;;;;;;;30.84;52.81;100724.46;213960;1291;138799;-81
2023/08/18 15:42:00;;;;;;;20.10;9.60;;;;;;;30.69;53.20;100723.04;213721;1290;140841;-81
2023/08/18 15:47:01;;;;;;;10.70;6.30;;;;;;;30.38;52.90;100720.60;214067;1291;139116;-81
2023/08/18 15:52:01;;;;;;;11.40;6.00;;;;;;;30.05;53.27;100714.85;213511;1294;139994;-80
2023/08/18 15:57:02;;;;;;;9.50;6.10;;;;;;;29.83;53.66;100711.86;214208;1290;138158;-81
2023/08/18 16:02:02;;;;;;;9.80;5.60;;;;;;;29.68;55.22;100713.27;213423;1291;140355;-80
2023/08/18 16:07:03;;;;;;;8.30;5.40;;;;;;;29.52;54.93;100708.09;213879;1289;138484;-80
2023/08/18 16:12:04;;;;;;;8.80;5.40;;;;;;;29.36;55.96;100705.28;212708;1291;140307;-80
2023/08/18 16:17:04;;;;;;;8.50;5.80;;;;;;;29.29;56.97;100703.80;212528;1293;138824;-80
2023/08/18 16:22:04;;;;;;;8.50;5.70;;;;;;;28.99;57.34;100706.84;213223;1290;140809;-80
2023/08/18 16:27:05;;;;;;;9.70;6.00;;;;;;;28.79;58.43;100712.86;213736;1290;139081;-80
2023/08/18 16:32:06;;;;;;;11.10;5.90;;;;;;;28.59;58.64;100716.34;213009;1290;139682;-80
2023/08/18 16:37:06;;;;;;;11.80;6.80;;;;;;;28.49;59.78;100713.87;213563;1291;138579;-81
2023/08/18 16:42:09;;;;;;;10.90;6.80;;;;;;;28.40;60.75;100714.35;213405;1293;140806;-81
2023/08/18 16:47:09;;;;;;;8.80;6.60;;;;;;;28.18;60.81;100718.87;214021;1293;137834;-81
2023/08/18 16:52:10;;;;;;;11.30;7.10;;;;;;;28.03;61.16;100721.26;213929;1291;139720;-81
2023/08/18 16:57:11;;;;;;;11.40;6.50;;;;;;;27.88;61.81;100721.77;214239;1290;138952;-80
2023/08/18 17:02:11;;;;;;;10.70;6.80;;;;;;;27.74;62.43;100723.85;213695;1290;142287;-80
2023/08/18 17:07:12;;;;;;;10.00;7.40;;;;;;;27.62;63.08;100725.08;213927;1290;138424;-80
2023/08/18 17:12:12;;;;;;;10.80;6.90;;;;;;;27.45;63.89;100723.16;213374;1293;141324;-80
2023/08/18 17:17:13;;;;;;;10.30;7.40;;;;;;;27.29;64.44;100717.86;213823;1290;97966;-81
2023/08/18 17:22:14;;;;;;;8.90;6.70;;;;;;;27.20;65.29;100719.73;213415;1291;139912;-81
2023/08/18 17:27:14;;;;;;;11.40;7.20;;;;;;;27.11;66.26;100725.58;213852;1291;138530;-81
2023/08/18 17:32:14;;;;;;;11.70;8.40;;;;;;;27.00;67.24;100730.35;213434;1291;140628;-81
2023/08/18 17:37:18;;;;;;;9.90;7.50;;;;;;;26.88;67.60;100726.70;214060;1290;138192;-81
2023/08/18 17:42:19;;;;;;;11.90;8.20;;;;;;;26.80;68.35;100724.87;213255;1291;139828;-81
2023/08/18 17:47:19;;;;;;;10.60;8.70;;;;;;;26.68;69.19;100728.77;213985;1291;98084;-81
2023/08/18 17:52:20;;;;;;;12.50;8.90;;;;;;;26.56;70.15;100728.12;213585;1290;140877;-80
2023/08/18 17:57:20;;;;;;;13.30;9.50;;;;;;;26.42;70.51;100718.70;213670;1293;138419;-81
2023/08/18 18:02:21;;;;;;;14.60;8.90;;;;;;;26.22;70.87;100712.77;213115;1290;141220;-81
2023/08/18 18:07:21;;;;;;;12.20;8.30;;;;;;;26.06;72.29;100726.04;213932;1290;138899;-81
2023/08/18 18:12:22;;;;;;;14.80;10.50;;;;;;;25.88;73.26;100734.54;213457;1290;140741;-81
2023/08/18 18:17:22;;;;;;;13.50;9.70;;;;;;;25.69;73.30;100731.77;214402;1288;98895;-81
2023/08/18 18:22:24;;;;;;;12.00;9.00;;;;;;;25.55;73.22;100731.14;213796;1292;139233;-81
2023/08/18 18:27:25;;;;;;;11.50;8.60;;;;;;;25.42;73.31;100745.93;213888;1293;138364;-82
2023/08/18 18:32:25;;;;;;;11.10;7.40;;;;;;;25.29;73.50;100758.78;213282;1291;139625;-81
2023/08/18 18:37:25;;;;;;;11.30;8.20;;;;;;;25.20;73.58;100765.46;214038;1291;138289;-83
2023/08/18 18:42:26;;;;;;;11.60;8.30;;;;;;;25.07;74.03;100771.55;213901;1293;141473;-82
2023/08/18 18:47:29;;;;;;;12.40;8.10;;;;;;;24.96;74.64;100775.52;214363;1290;99278;-83
2023/08/18 18:52:31;;;;;;;11.50;8.10;;;;;;;24.82;75.03;100781.48;213679;1291;141106;-83
2023/08/18 18:57:32;;;;;;;10.80;7.70;;;;;;;24.67;75.39;100776.99;214006;1293;138827;-84
2023/08/18 19:02:34;;;;;;;10.10;7.40;;;;;;;24.54;75.11;100777.61;213370;1291;142055;-83
2023/08/18 19:07:34;;;;;;;12.80;8.00;;;;;;;24.47;75.08;100774.62;213925;1290;138832;-83
2023/08/18 19:12:36;;;;;;;10.00;7.70;;;;;;;24.41;75.53;100770.05;214338;1289;141053;-83
2023/08/18 19:17:36;;;;;;;10.40;7.70;;;;;;;24.28;75.78;100773.22;215256;1290;97946;-83
2023/08/18 19:22:37;;;;;;;10.00;7.00;;;;;;;24.15;76.37;100778.08;214766;1292;140682;-83
2023/08/18 19:27:37;;;;;;;10.00;7.60;;;;;;;24.06;77.19;100780.45;215375;1290;138748;-83
2023/08/18 19:32:39;;;;;;;13.20;8.40;;;;;;;23.95;77.99;100786.98;214728;1291;143342;-82
2023/08/18 19:37:39;;;;;;;10.80;6.50;;;;;;;23.81;78.73;100794.71;215001;1291;138863;-82
2023/08/18 19:42:40;;;;;;;11.90;7.10;;;;;;;23.68;78.67;100791.17;214879;1290;142859;-83
2023/08/18 19:47:40;;;;;;;9.60;7.40;;;;;;;23.58;78.83;100779.17;215117;1291;97199;-82
2023/08/18 19:52:41;;;;;;;10.60;7.30;;;;;;;23.55;79.31;100769.96;214715;1293;140558;-82
2023/08/18 19:57:41;;;;;;;10.70;7.70;;;;;;;23.46;80.18;100763.66;215451;1290;139215;-82
2023/08/18 20:02:43;;;;;;;12.30;8.20;;;;;;;23.38;80.60;100759.85;214758;1290;140780;-82
2023/08/18 20:07:43;;;;;;;10.80;7.90;;;;;;;23.32;80.60;100752.13;215150;1289;139238;-82
2023/08/18 20:12:45;;;;;;;11.50;7.90;;;;;;;23.24;81.17;100753.30;214872;1291;140523;-82
2023/08/18 20:17:46;;;;;;;12.20;8.00;;;;;;;23.17;81.45;100754.65;215241;1291;104289;-82
2023/08/18 20:22:47;;;;;;;12.40;7.70;;;;;;;23.09;81.93;100755.56;213434;1293;141122;-82
2023/08/18 20:27:47;;;;;;;13.10;8.40;;;;;;;23.02;82.21;100757.58;213742;1292;139077;-82
2023/08/18 20:32:57;;;;;;;12.60;8.90;;;;;;;22.90;83.23;100760.16;213188;1292;140884;-82
2023/08/18 20:37:57;;;;;;;15.20;9.50;;;;;;;22.80;84.15;100754.30;213985;1289;139390;-82
2023/08/18 20:42:58;;;;;;;12.20;9.30;;;;;;;22.72;84.27;100747.77;213269;1293;140874;-83
2023/08/18 20:47:58;;;;;;;12.10;8.80;;;;;;;22.65;84.05;100742.70;214142;1294;97850;-82
2023/08/18 20:52:59;;;;;;;11.80;8.20;;;;;;;22.60;84.36;100738.56;213874;1291;140545;-82
2023/08/18 20:57:59;;;;;;;12.20;8.80;;;;;;;22.56;84.47;100737.34;215043;1290;138843;-82
2023/08/18 21:03:00;;;;;;;12.70;9.20;;;;;;;22.50;84.82;100736.33;214355;1291;142907;-83
2023/08/18 21:08:00;;;;;;;12.50;9.50;;;;;;;22.44;85.26;100744.60;214894;1293;138939;-82
2023/08/18 21:13:00;;;;;;;12.10;10.00;;;;;;;22.37;86.82;100748.90;214416;1290;143427;-82
2023/08/18 21:18:01;;;;;;;12.30;9.00;;;;;;;22.28;87.54;100755.77;215169;1291;97964;-83
2023/08/18 21:23:02;;;;;;;13.10;8.80;;;;;;;22.18;88.20;100758.25;214672;1291;140524;-83
2023/08/18 21:28:03;;;;;;;12.40;9.10;;;;;;;22.09;88.59;100755.40;215380;1290;138767;-83
2023/08/18 21:33:04;;;;;;;12.10;8.90;;;;;;;21.97;89.46;100752.40;214655;1290;141957;-83
2023/08/18 21:38:04;;;;;;;12.90;9.10;;;;;;;21.87;89.51;100748.64;217043;1289;139338;-83
2023/08/18 21:43:05;;;;;;;11.40;9.10;;;;;;;21.80;90.47;100744.84;217282;1291;143472;-82
2023/08/18 21:48:07;;;;;;;15.40;10.90;;;;;;;21.70;90.80;100741.70;215847;1293;97973;-81
2023/08/18 21:53:08;;;;;;;12.80;9.50;;;;;;;21.62;91.62;100742.64;214109;1291;142274;-81
2023/08/18 21:58:08;;;;;;;14.60;10.40;;;;;;;21.53;91.68;100745.27;214223;1291;265657;-81
2023/08/18 22:03:10;;;;;;;13.50;9.80;;;;;;;21.46;92.66;100749.31;213496;1293;141945;-81
2023/08/18 22:08:11;;;;;;;15.20;10.30;;;;;;;21.35;92.70;100745.95;214049;1293;138870;-81
2023/08/18 22:13:11;;;;;;;14.00;10.00;;;;;;;21.27;92.73;100738.02;213355;1291;142544;-81
2023/08/18 22:18:12;;;;;;;15.20;9.60;;;;;;;21.20;93.83;100734.77;213727;1293;99414;-81
2023/08/18 22:23:14;;;;;;;13.20;10.40;;;;;;;21.10;93.78;100736.64;213117;1293;142179;-81
2023/08/18 22:28:15;;;;;;;15.50;11.10;;;;;;;21.04;94.60;100729.14;213649;1291;139190;-81